Time;durP1;ratioP1;P1;durP2;ratioP2;P2;SDS_P1;SDS_P2;PMS_P1;PMS_P2;Temp;Humidity;BMP_temperature;BMP_pressure;BME280_temperature;BME280_humidity;BME280_pressure;Samples;Min_cycle;Max_cycle;Signal;HPM_P1;HPM_P2
2021/12/26 00:00:19;;;;;;;;;;;9.70;91.90;;;;;;5013926;28;19960;-60
2021/12/26 00:02:45;;;;;;;;;;;9.70;92.00;;;;;;5013724;28;19909;-60
2021/12/26 00:05:11;;;;;;;;;;;9.70;92.10;;;;;;5013819;28;19920;-60
2021/12/26 00:07:37;;;;;;;;;;;9.80;91.80;;;;;;5013766;28;19964;-60
2021/12/26 00:10:06;;;;;;;;;;;9.90;91.60;;;;;;5013732;28;19918;-60
2021/12/26 00:12:32;;;;;;;;;;;9.90;91.70;;;;;;4996022;28;20377;-59
2021/12/26 00:14:58;;;;;;;;;;;9.90;91.70;;;;;;5013605;28;20388;-60
2021/12/26 00:17:23;;;;;;;;;;;9.90;91.60;;;;;;5013536;28;20308;-61
2021/12/26 00:19:49;;;;;;;;;;;9.90;91.40;;;;;;5013390;28;19957;-61
2021/12/26 00:22:15;;;;;;;;;;;9.90;91.50;;;;;;5013694;28;19909;-60
2021/12/26 00:24:41;;;;;;;;;;;10.00;91.30;;;;;;5013644;28;19914;-60
2021/12/26 00:27:07;;;;;;;;;;;10.10;91.10;;;;;;5013311;28;19959;-60
2021/12/26 00:29:32;;;;;;;;;;;10.10;91.00;;;;;;5013593;28;19921;-60
2021/12/26 00:31:58;;;;;;;;;;;10.00;90.90;;;;;;5013336;28;19912;-60
2021/12/26 00:34:23;;;;;;;;;;;10.00;91.10;;;;;;5013443;28;19909;-59
2021/12/26 00:36:49;;;;;;;;;;;10.00;91.10;;;;;;5013583;28;19910;-59
2021/12/26 00:39:16;;;;;;;;;;;10.00;91.30;;;;;;5013364;28;19913;-60
2021/12/26 00:41:41;;;;;;;;;;;10.00;91.20;;;;;;5013324;28;20301;-59
2021/12/26 00:44:07;;;;;;;;;;;10.00;91.20;;;;;;5013543;28;19916;-60
2021/12/26 00:46:35;;;;;;;;;;;10.00;91.20;;;;;;5013220;28;20008;-60
2021/12/26 00:49:01;;;;;;;;;;;10.00;91.30;;;;;;5013355;28;19952;-61
2021/12/26 00:51:26;;;;;;;;;;;10.10;91.20;;;;;;5013279;28;19910;-60
2021/12/26 00:53:52;;;;;;;;;;;10.00;91.10;;;;;;5013367;28;19992;-60
2021/12/26 00:56:19;;;;;;;;;;;10.00;91.20;;;;;;5013163;28;19909;-60
2021/12/26 00:58:45;;;;;;;;;;;10.10;91.10;;;;;;5012794;28;19913;-61
2021/12/26 01:01:11;;;;;;;;;;;10.00;91.10;;;;;;5013185;28;20346;-60
2021/12/26 01:03:37;;;;;;;;;;;10.00;91.10;;;;;;5013277;28;19909;-59
2021/12/26 01:06:03;;;;;;;;;;;10.00;91.20;;;;;;5013174;28;19941;-62
2021/12/26 01:08:31;;;;;;;;;;;10.10;91.20;;;;;;5013266;28;19910;-60
2021/12/26 01:10:59;;;;;;;;;;;10.00;91.10;;;;;;5012841;28;20341;-59
2021/12/26 01:13:30;;;;;;;;;;;10.00;91.10;;;;;;5013173;28;19916;-61
2021/12/26 01:15:58;;;;;;;;;;;10.00;91.10;;;;;;5012858;28;19909;-61
2021/12/26 01:18:25;;;;;;;;;;;10.00;91.00;;;;;;5012941;28;19910;-60
2021/12/26 01:20:57;;;;;;;;;;;10.00;91.10;;;;;;5012877;28;19918;-61
2021/12/26 01:23:24;;;;;;;;;;;10.00;91.10;;;;;;5013307;28;19921;-60
2021/12/26 01:25:50;;;;;;;;;;;10.00;91.20;;;;;;5012909;28;19957;-60
2021/12/26 01:28:18;;;;;;;;;;;10.00;91.10;;;;;;5012768;28;20237;-59
2021/12/26 01:30:43;;;;;;;;;;;10.00;91.10;;;;;;5013206;28;20285;-60
2021/12/26 01:33:10;;;;;;;;;;;10.00;91.00;;;;;;5012873;28;19910;-62
2021/12/26 01:35:36;;;;;;;;;;;10.10;90.90;;;;;;5013121;28;19913;-60
2021/12/26 01:38:02;;;;;;;;;;;10.20;90.60;;;;;;5012917;28;20001;-61
2021/12/26 01:40:28;;;;;;;;;;;10.30;90.50;;;;;;5015178;28;19957;-60
2021/12/26 01:42:54;;;;;;;;;;;10.20;90.50;;;;;;5016317;28;20400;-61
2021/12/26 01:45:19;;;;;;;;;;;10.10;90.80;;;;;;5016258;28;19913;-61
2021/12/26 01:47:46;;;;;;;;;;;9.80;91.30;;;;;;5016469;28;20336;-60
2021/12/26 01:50:11;;;;;;;;;;;9.90;91.40;;;;;;5016251;28;19909;-62
2021/12/26 01:52:37;;;;;;;;;;;10.00;91.40;;;;;;5016022;28;19964;-60
2021/12/26 01:55:22;;;;;;;;;;;9.90;91.30;;;;;;5016133;28;19963;-61
2021/12/26 01:57:52;;;;;;;;;;;10.00;91.20;;;;;;5016045;28;20320;-64
2021/12/26 02:00:19;;;;;;;;;;;9.90;91.40;;;;;;5016063;28;19940;-61
2021/12/26 02:02:44;;;;;;;;;;;9.80;91.70;;;;;;5015987;28;20380;-63
2021/12/26 02:05:10;;;;;;;;;;;9.90;91.60;;;;;;5016152;28;19909;-62
2021/12/26 02:07:36;;;;;;;;;;;9.90;91.50;;;;;;5016018;28;19917;-64
2021/12/26 02:10:01;;;;;;;;;;;10.00;91.40;;;;;;5016149;28;19913;-63
2021/12/26 02:12:27;;;;;;;;;;;10.00;91.20;;;;;;5015862;28;19909;-61
2021/12/26 02:14:53;;;;;;;;;;;10.10;91.20;;;;;;5015852;28;19992;-64
2021/12/26 02:17:19;;;;;;;;;;;10.10;91.20;;;;;;5015728;28;20399;-61
2021/12/26 02:19:44;;;;;;;;;;;10.10;91.20;;;;;;5015537;28;19918;-60
2021/12/26 02:22:15;;;;;;;;;;;10.10;91.20;;;;;;5015355;28;19984;-61
2021/12/26 02:25:09;;;;;;;;;;;10.00;91.10;;;;;;5015493;28;20265;-60
2021/12/26 02:27:32;;;;;;;;;;;10.10;91.20;;;;;;5015460;28;19944;-63
2021/12/26 02:30:08;;;;;;;;;;;10.00;91.10;;;;;;5015553;28;19910;-65
2021/12/26 02:32:34;;;;;;;;;;;10.00;91.20;;;;;;5015632;28;20328;-61
2021/12/26 02:35:00;;;;;;;;;;;10.10;91.20;;;;;;5015286;28;19914;-62
2021/12/26 02:37:26;;;;;;;;;;;10.10;91.10;;;;;;5015318;28;19933;-63
2021/12/26 02:39:52;;;;;;;;;;;10.00;91.10;;;;;;5015384;28;19924;-66
2021/12/26 02:42:18;;;;;;;;;;;10.00;91.10;;;;;;5015311;28;19992;-61
2021/12/26 02:44:44;;;;;;;;;;;10.00;91.10;;;;;;5015314;28;19967;-61
2021/12/26 02:47:09;;;;;;;;;;;10.10;91.10;;;;;;5015236;28;19917;-63
2021/12/26 02:49:35;;;;;;;;;;;10.10;91.10;;;;;;5015003;28;19992;-62
2021/12/26 02:52:00;;;;;;;;;;;10.10;91.10;;;;;;5015198;28;19945;-61
2021/12/26 02:54:26;;;;;;;;;;;10.10;91.10;;;;;;5015098;28;19909;-62
2021/12/26 02:56:52;;;;;;;;;;;10.00;91.10;;;;;;5015094;28;20434;-59
2021/12/26 02:59:18;;;;;;;;;;;10.10;91.20;;;;;;5015006;28;20331;-60
2021/12/26 03:01:43;;;;;;;;;;;10.10;91.10;;;;;;5014935;28;19916;-61
2021/12/26 03:04:09;;;;;;;;;;;10.10;91.00;;;;;;5014871;28;20004;-61
2021/12/26 03:06:43;;;;;;;;;;;10.10;91.00;;;;;;5014855;28;19917;-64
2021/12/26 03:09:09;;;;;;;;;;;10.10;91.10;;;;;;5014773;28;19916;-61
2021/12/26 03:11:38;;;;;;;;;;;10.00;91.10;;;;;;5014891;28;19910;-60
2021/12/26 03:14:04;;;;;;;;;;;10.10;91.20;;;;;;5014564;28;19914;-59
2021/12/26 03:16:30;;;;;;;;;;;10.00;91.10;;;;;;5014724;28;20365;-61
2021/12/26 03:18:56;;;;;;;;;;;10.00;91.10;;;;;;5014366;28;19960;-61
2021/12/26 03:21:22;;;;;;;;;;;10.00;91.10;;;;;;5014504;28;19923;-64
2021/12/26 03:23:48;;;;;;;;;;;10.10;91.10;;;;;;5014558;28;19992;-59
2021/12/26 03:26:13;;;;;;;;;;;10.10;91.10;;;;;;5014252;28;19925;-61
2021/12/26 03:28:39;;;;;;;;;;;10.10;91.10;;;;;;5014810;28;19910;-59
2021/12/26 03:31:04;;;;;;;;;;;10.10;91.00;;;;;;5014767;28;19957;-59
2021/12/26 03:33:30;;;;;;;;;;;10.10;91.00;;;;;;5014335;28;20457;-61
2021/12/26 03:35:56;;;;;;;;;;;10.10;91.00;;;;;;5014423;28;20393;-62
2021/12/26 03:38:22;;;;;;;;;;;10.10;91.00;;;;;;5014336;28;19921;-59
2021/12/26 03:40:48;;;;;;;;;;;10.00;91.10;;;;;;5014177;28;20336;-59
2021/12/26 03:43:14;;;;;;;;;;;9.90;91.50;;;;;;5014122;28;19909;-59
2021/12/26 03:45:40;;;;;;;;;;;10.00;91.30;;;;;;5014254;28;19909;-61
2021/12/26 03:48:06;;;;;;;;;;;10.00;91.20;;;;;;5014238;28;19913;-62
2021/12/26 03:50:33;;;;;;;;;;;10.00;91.10;;;;;;5014132;28;19968;-64
2021/12/26 03:53:01;;;;;;;;;;;10.10;91.00;;;;;;5014175;28;19999;-62
2021/12/26 03:55:27;;;;;;;;;;;10.00;91.30;;;;;;5013983;28;19910;-62
2021/12/26 03:57:53;;;;;;;;;;;10.00;91.20;;;;;;5014014;28;19916;-62
2021/12/26 04:00:19;;;;;;;;;;;10.00;91.20;;;;;;5013691;28;19945;-60
2021/12/26 04:02:45;;;;;;;;;;;10.00;91.10;;;;;;5013389;28;20357;-60
2021/12/26 04:05:11;;;;;;;;;;;10.00;91.10;;;;;;5013993;28;19964;-60
2021/12/26 04:07:37;;;;;;;;;;;10.10;91.10;;;;;;5013707;28;19909;-62
2021/12/26 04:10:03;;;;;;;;;;;10.10;91.00;;;;;;5013730;28;20285;-60
2021/12/26 04:12:35;;;;;;;;;;;10.10;90.90;;;;;;5013870;28;19913;-63
2021/12/26 04:15:01;;;;;;;;;;;10.10;90.80;;;;;;5013504;28;19910;-60
2021/12/26 04:17:26;;;;;;;;;;;10.10;90.70;;;;;;5013915;28;19913;-61
2021/12/26 04:19:52;;;;;;;;;;;10.10;90.90;;;;;;5013465;28;19917;-63
2021/12/26 04:22:18;;;;;;;;;;;10.00;90.80;;;;;;5013692;28;19916;-62
2021/12/26 04:24:43;;;;;;;;;;;10.10;90.70;;;;;;5013678;28;19956;-60
2021/12/26 04:27:11;;;;;;;;;;;10.00;90.70;;;;;;5012798;28;20483;-59
2021/12/26 04:29:36;;;;;;;;;;;10.00;90.70;;;;;;5013598;28;19920;-60
2021/12/26 04:32:02;;;;;;;;;;;10.00;90.80;;;;;;5013743;28;19909;-65
2021/12/26 04:34:27;;;;;;;;;;;9.90;90.60;;;;;;5013621;28;19910;-63
2021/12/26 04:36:53;;;;;;;;;;;9.90;90.60;;;;;;5013520;28;19910;-61
2021/12/26 04:39:18;;;;;;;;;;;10.00;90.60;;;;;;4995871;28;19913;-60
2021/12/26 04:41:46;;;;;;;;;;;9.90;90.50;;;;;;4995970;28;19968;-60
2021/12/26 04:44:12;;;;;;;;;;;9.80;90.60;;;;;;5013227;28;19910;-60
2021/12/26 04:46:37;;;;;;;;;;;9.90;90.70;;;;;;5013338;28;19920;-60
2021/12/26 04:49:03;;;;;;;;;;;9.90;90.60;;;;;;5013404;28;19909;-60
2021/12/26 04:51:29;;;;;;;;;;;9.80;90.60;;;;;;5013318;28;20381;-60
2021/12/26 04:53:54;;;;;;;;;;;9.90;90.40;;;;;;5013341;28;20389;-60
2021/12/26 04:56:20;;;;;;;;;;;9.80;90.20;;;;;;5013573;28;19910;-59
2021/12/26 04:58:45;;;;;;;;;;;9.80;90.00;;;;;;5013193;28;19917;-60
2021/12/26 05:01:11;;;;;;;;;;;9.70;90.10;;;;;;5013345;28;19920;-60
2021/12/26 05:03:37;;;;;;;;;;;9.70;90.10;;;;;;5013316;28;19909;-61
2021/12/26 05:06:02;;;;;;;;;;;9.60;90.10;;;;;;5013306;28;19936;-60
2021/12/26 05:08:28;;;;;;;;;;;9.60;90.00;;;;;;5013347;28;19909;-61
2021/12/26 05:10:55;;;;;;;;;;;9.30;90.20;;;;;;5012961;28;19956;-61
2021/12/26 05:13:21;;;;;;;;;;;9.40;90.40;;;;;;5013211;28;19980;-61
2021/12/26 05:15:47;;;;;;;;;;;9.20;90.50;;;;;;5016659;28;20357;-63
2021/12/26 05:18:12;;;;;;;;;;;8.90;90.90;;;;;;5017178;28;19913;-64
2021/12/26 05:20:38;;;;;;;;;;;8.80;91.40;;;;;;5016849;28;20001;-61
2021/12/26 05:23:04;;;;;;;;;;;8.90;91.60;;;;;;5016645;28;19933;-61
2021/12/26 05:25:30;;;;;;;;;;;9.10;91.40;;;;;;5016744;28;19921;-59
2021/12/26 05:27:56;;;;;;;;;;;9.20;91.10;;;;;;5016660;28;19913;-59
2021/12/26 05:30:25;;;;;;;;;;;9.30;90.80;;;;;;5016401;28;20483;-60
2021/12/26 05:32:51;;;;;;;;;;;9.40;90.70;;;;;;5016731;28;19910;-61
2021/12/26 05:35:17;;;;;;;;;;;9.40;90.50;;;;;;5016493;28;20354;-60
2021/12/26 05:37:44;;;;;;;;;;;9.40;90.40;;;;;;5016694;28;19913;-60
2021/12/26 05:40:10;;;;;;;;;;;9.40;90.40;;;;;;5016394;28;20035;-60
2021/12/26 05:42:38;;;;;;;;;;;9.40;90.40;;;;;;5016289;28;19913;-60
2021/12/26 05:45:05;;;;;;;;;;;9.40;90.40;;;;;;5016522;28;19910;-60
2021/12/26 05:47:31;;;;;;;;;;;9.40;90.30;;;;;;5016225;28;19932;-59
2021/12/26 05:49:57;;;;;;;;;;;9.40;90.30;;;;;;5016383;28;20029;-60
2021/12/26 05:52:22;;;;;;;;;;;9.50;90.30;;;;;;5016462;28;20095;-61
2021/12/26 05:54:48;;;;;;;;;;;9.40;90.30;;;;;;5016263;28;19921;-62
2021/12/26 05:57:15;;;;;;;;;;;9.40;90.20;;;;;;5016171;28;19916;-61
2021/12/26 05:59:41;;;;;;;;;;;9.50;90.20;;;;;;5015911;28;20349;-59
2021/12/26 06:02:06;;;;;;;;;;;9.40;90.30;;;;;;5016140;28;20027;-61
2021/12/26 06:04:32;;;;;;;;;;;9.40;90.40;;;;;;5016298;28;20376;-61
2021/12/26 06:06:58;;;;;;;;;;;9.50;90.00;;;;;;5015830;28;19916;-60
2021/12/26 06:09:24;;;;;;;;;;;9.50;90.00;;;;;;5016114;28;19956;-59
2021/12/26 06:11:50;;;;;;;;;;;9.50;90.20;;;;;;5015779;28;19910;-59
2021/12/26 06:14:15;;;;;;;;;;;9.50;90.30;;;;;;5015984;28;20281;-61
2021/12/26 06:16:41;;;;;;;;;;;9.50;90.30;;;;;;5016014;28;19910;-60
2021/12/26 06:19:07;;;;;;;;;;;9.50;90.30;;;;;;5015624;28;19956;-60
2021/12/26 06:21:32;;;;;;;;;;;9.50;90.30;;;;;;5015775;28;19920;-59
2021/12/26 06:23:58;;;;;;;;;;;9.50;90.30;;;;;;5015720;28;19909;-61
2021/12/26 06:26:24;;;;;;;;;;;9.60;90.20;;;;;;5015029;28;20051;-59
2021/12/26 06:28:50;;;;;;;;;;;9.60;90.20;;;;;;5015580;28;19917;-59
2021/12/26 06:31:16;;;;;;;;;;;9.50;90.10;;;;;;5015451;28;19909;-60
2021/12/26 06:33:42;;;;;;;;;;;9.40;90.20;;;;;;5015689;28;20262;-59
2021/12/26 06:36:08;;;;;;;;;;;9.40;90.20;;;;;;5015512;28;19965;-61
2021/12/26 06:38:35;;;;;;;;;;;9.40;90.10;;;;;;5015242;28;20295;-60
2021/12/26 06:41:01;;;;;;;;;;;9.30;90.00;;;;;;5015197;28;19925;-60
2021/12/26 06:43:26;;;;;;;;;;;9.30;90.10;;;;;;5015214;28;20313;-62
2021/12/26 06:45:53;;;;;;;;;;;9.20;90.30;;;;;;5015484;28;20278;-62
2021/12/26 06:48:19;;;;;;;;;;;9.20;90.40;;;;;;5015227;28;19916;-59
2021/12/26 06:50:45;;;;;;;;;;;9.20;90.10;;;;;;5014896;28;20008;-59
2021/12/26 06:53:11;;;;;;;;;;;9.20;90.30;;;;;;5015276;28;19948;-60
2021/12/26 06:55:37;;;;;;;;;;;9.20;90.40;;;;;;5014896;28;19913;-60
2021/12/26 06:58:02;;;;;;;;;;;9.30;90.20;;;;;;5015189;28;19967;-60
2021/12/26 07:00:28;;;;;;;;;;;9.30;90.10;;;;;;5014734;28;19963;-60
2021/12/26 07:02:54;;;;;;;;;;;9.20;90.50;;;;;;5014698;28;20006;-62
2021/12/26 07:05:20;;;;;;;;;;;9.20;90.30;;;;;;5015009;28;20496;-59
2021/12/26 07:07:46;;;;;;;;;;;9.00;90.60;;;;;;4997123;28;19910;-60
2021/12/26 07:10:11;;;;;;;;;;;9.10;90.70;;;;;;5014421;28;20278;-61
2021/12/26 07:12:37;;;;;;;;;;;9.20;90.20;;;;;;5014783;28;19910;-61
2021/12/26 07:15:03;;;;;;;;;;;9.40;85.70;;;;;;5014573;28;19910;-62
2021/12/26 07:17:29;;;;;;;;;;;10.00;90.90;;;;;;5014661;28;19909;-60
2021/12/26 07:19:54;;;;;;;;;;;10.30;84.50;;;;;;5013881;28;19953;-61
2021/12/26 07:22:20;;;;;;;;;;;10.70;81.70;;;;;;5013405;28;19914;-56
2021/12/26 07:24:47;;;;;;;;;;;11.30;81.10;;;;;;5014275;28;19914;-59
2021/12/26 07:27:13;;;;;;;;;;;11.50;76.20;;;;;;5014175;28;20052;-56
2021/12/26 07:29:38;;;;;;;;;;;11.30;75.30;;;;;;4996840;28;20354;-60
2021/12/26 07:32:05;;;;;;;;;;;11.30;72.60;;;;;;5014251;28;19964;-60
2021/12/26 07:34:30;;;;;;;;;;;11.10;74.10;;;;;;4996658;28;20652;-60
2021/12/26 07:36:56;;;;;;;;;;;10.60;73.60;;;;;;5013571;28;20008;-60
2021/12/26 07:39:21;;;;;;;;;;;10.60;75.60;;;;;;5013950;28;19920;-59
2021/12/26 07:41:47;;;;;;;;;;;10.50;75.20;;;;;;5014219;28;19913;-59
2021/12/26 07:44:12;;;;;;;;;;;10.40;76.40;;;;;;5014202;28;19959;-62
2021/12/26 07:46:38;;;;;;;;;;;10.30;78.80;;;;;;5014003;28;19909;-59
2021/12/26 07:49:04;;;;;;;;;;;10.10;80.80;;;;;;5014123;28;20277;-60
2021/12/26 07:51:29;;;;;;;;;;;10.00;80.50;;;;;;5013842;28;19913;-61
2021/12/26 07:53:59;;;;;;;;;;;9.90;75.80;;;;;;5013123;28;19921;-63
2021/12/26 07:56:25;;;;;;;;;;;9.80;76.10;;;;;;5013414;28;20294;-60
2021/12/26 07:58:51;;;;;;;;;;;9.80;76.80;;;;;;5013060;28;19916;-61
2021/12/26 08:01:16;;;;;;;;;;;9.60;76.90;;;;;;5013387;28;19914;-60
2021/12/26 08:03:42;;;;;;;;;;;9.70;77.20;;;;;;5012972;28;19918;-61
2021/12/26 08:06:08;;;;;;;;;;;9.70;78.60;;;;;;5013865;28;19924;-61
2021/12/26 08:08:35;;;;;;;;;;;9.70;79.50;;;;;;4996323;28;19916;-58
2021/12/26 08:11:01;;;;;;;;;;;9.70;80.70;;;;;;5013737;28;19953;-59
2021/12/26 08:13:27;;;;;;;;;;;9.60;77.30;;;;;;5013777;28;19960;-59
2021/12/26 08:15:53;;;;;;;;;;;9.60;77.20;;;;;;5013542;28;19917;-59
2021/12/26 08:18:19;;;;;;;;;;;9.70;76.50;;;;;;5013671;28;20285;-58
2021/12/26 08:20:44;;;;;;;;;;;9.70;75.90;;;;;;5013396;28;20032;-59
2021/12/26 08:23:11;;;;;;;;;;;9.70;75.00;;;;;;5013382;28;19914;-58
2021/12/26 08:25:37;;;;;;;;;;;9.70;74.90;;;;;;5013408;28;19922;-61
2021/12/26 08:28:02;;;;;;;;;;;9.60;75.60;;;;;;5013491;28;20004;-58
2021/12/26 08:30:30;;;;;;;;;;;9.60;76.00;;;;;;5013183;28;20365;-59
2021/12/26 08:32:58;;;;;;;;;;;9.70;75.60;;;;;;5013561;28;19909;-64
2021/12/26 08:35:24;;;;;;;;;;;9.60;75.20;;;;;;4995979;28;20395;-57
2021/12/26 08:37:50;;;;;;;;;;;9.50;75.10;;;;;;5013377;28;19988;-58
2021/12/26 08:40:16;;;;;;;;;;;9.30;75.00;;;;;;5013183;28;19995;-59
2021/12/26 08:42:41;;;;;;;;;;;9.30;75.30;;;;;;5013234;28;20008;-60
2021/12/26 08:45:07;;;;;;;;;;;9.40;74.30;;;;;;5013372;28;19916;-60
2021/12/26 08:47:33;;;;;;;;;;;9.30;75.00;;;;;;5013061;28;19913;-58
2021/12/26 08:49:58;;;;;;;;;;;9.40;74.90;;;;;;4999446;28;19921;-59
2021/12/26 08:52:24;;;;;;;;;;;9.20;75.20;;;;;;5017415;28;20320;-60
2021/12/26 08:54:49;;;;;;;;;;;9.30;75.00;;;;;;5017254;28;20000;-57
2021/12/26 08:57:15;;;;;;;;;;;9.20;75.20;;;;;;5017339;28;19913;-59
2021/12/26 08:59:41;;;;;;;;;;;9.30;75.20;;;;;;4999415;28;19920;-62
2021/12/26 09:02:07;;;;;;;;;;;9.40;75.50;;;;;;4999572;28;20366;-61
2021/12/26 09:04:33;;;;;;;;;;;9.50;74.80;;;;;;5017163;28;20000;-63
2021/12/26 09:06:59;;;;;;;;;;;9.70;75.30;;;;;;5016831;28;19920;-59
2021/12/26 09:09:27;;;;;;;;;;;9.70;74.40;;;;;;5016432;28;19913;-65
2021/12/26 09:11:53;;;;;;;;;;;9.70;74.60;;;;;;5016513;28;20012;-60
2021/12/26 09:14:18;;;;;;;;;;;9.60;73.90;;;;;;5016395;28;20378;-59
2021/12/26 09:16:44;;;;;;;;;;;9.50;74.80;;;;;;4998495;28;19917;-58
2021/12/26 09:19:09;;;;;;;;;;;9.60;74.00;;;;;;5016212;28;19910;-61
2021/12/26 09:21:35;;;;;;;;;;;9.60;74.00;;;;;;5016242;28;19909;-62
2021/12/26 09:24:02;;;;;;;;;;;9.60;73.30;;;;;;5016895;28;19999;-59
2021/12/26 09:26:27;;;;;;;;;;;9.40;73.60;;;;;;5016782;28;19928;-62
2021/12/26 09:28:53;;;;;;;;;;;9.30;75.10;;;;;;5016689;28;19909;-62
2021/12/26 09:31:19;;;;;;;;;;;9.40;74.60;;;;;;4998715;28;20273;-62
2021/12/26 09:33:44;;;;;;;;;;;9.40;74.20;;;;;;5016557;28;20023;-61
2021/12/26 09:36:10;;;;;;;;;;;9.30;74.00;;;;;;5016775;28;19913;-62
2021/12/26 09:38:35;;;;;;;;;;;9.40;74.90;;;;;;5016370;28;20431;-66
2021/12/26 09:41:01;;;;;;;;;;;9.20;74.90;;;;;;4998880;28;19917;-61
2021/12/26 09:43:27;;;;;;;;;;;9.20;75.30;;;;;;5016160;28;19932;-59
2021/12/26 09:45:53;;;;;;;;;;;9.30;75.40;;;;;;5016549;28;20433;-61
2021/12/26 09:48:19;;;;;;;;;;;9.30;75.00;;;;;;5016393;28;19965;-59
2021/12/26 09:50:44;;;;;;;;;;;9.40;75.10;;;;;;5016076;28;19925;-62
2021/12/26 09:53:10;;;;;;;;;;;9.30;74.90;;;;;;5016332;28;19910;-61
2021/12/26 09:55:35;;;;;;;;;;;9.40;74.80;;;;;;5016180;28;19952;-61
2021/12/26 09:58:01;;;;;;;;;;;9.40;74.30;;;;;;4998606;28;19909;-60
2021/12/26 10:00:26;;;;;;;;;;;9.40;73.90;;;;;;5015227;28;19921;-58
2021/12/26 10:03:10;;;;;;;;;;;9.40;73.50;;;;;;5013933;28;19917;-61
2021/12/26 10:05:55;;;;;;;;;;;9.40;73.70;;;;;;5009571;28;19956;-63
2021/12/26 10:08:20;;;;;;;;;;;9.40;73.80;;;;;;5015894;28;19999;-62
2021/12/26 10:11:04;;;;;;;;;;;9.30;74.80;;;;;;5015707;28;19909;-60
2021/12/26 10:13:40;;;;;;;;;;;9.30;73.70;;;;;;5015560;28;19940;-61
2021/12/26 10:16:05;;;;;;;;;;;9.40;74.20;;;;;;5015253;28;19914;-60
2021/12/26 10:18:31;;;;;;;;;;;9.40;73.00;;;;;;5015375;28;19914;-61
2021/12/26 10:20:57;;;;;;;;;;;9.40;73.30;;;;;;5014840;28;20330;-61
2021/12/26 10:23:23;;;;;;;;;;;9.40;73.50;;;;;;5015136;28;19922;-60
2021/12/26 10:25:49;;;;;;;;;;;9.30;73.10;;;;;;4997056;28;20423;-61
2021/12/26 10:28:14;;;;;;;;;;;9.30;74.20;;;;;;5015503;28;19917;-62
2021/12/26 10:30:43;;;;;;;;;;;9.50;74.50;;;;;;5015593;28;20368;-62
2021/12/26 10:33:08;;;;;;;;;;;9.50;74.30;;;;;;5013827;28;19921;-61
2021/12/26 10:35:34;;;;;;;;;;;9.70;73.80;;;;;;5006566;28;20285;-65
2021/12/26 10:38:00;;;;;;;;;;;9.60;73.80;;;;;;5010543;28;20384;-63
2021/12/26 10:40:27;;;;;;;;;;;9.50;74.00;;;;;;5014984;28;19925;-65
2021/12/26 10:42:53;;;;;;;;;;;9.40;74.60;;;;;;5015198;28;19924;-61
2021/12/26 10:45:21;;;;;;;;;;;9.40;74.40;;;;;;5014210;28;19913;-58
2021/12/26 10:47:54;;;;;;;;;;;9.40;75.00;;;;;;5014200;28;19919;-60
2021/12/26 10:50:21;;;;;;;;;;;9.30;74.90;;;;;;5014471;28;19945;-60
2021/12/26 10:52:51;;;;;;;;;;;9.30;74.60;;;;;;5014442;28;19916;-59
2021/12/26 10:55:18;;;;;;;;;;;9.30;75.20;;;;;;5014252;28;19913;-58
2021/12/26 10:57:45;;;;;;;;;;;9.30;74.70;;;;;;5014156;28;19909;-59
2021/12/26 11:00:13;;;;;;;;;;;9.30;74.70;;;;;;5014190;28;19948;-61
2021/12/26 11:02:40;;;;;;;;;;;9.30;74.80;;;;;;4997012;28;19910;-60
2021/12/26 11:05:13;;;;;;;;;;;9.20;74.60;;;;;;5014669;28;19913;-57
2021/12/26 11:07:44;;;;;;;;;;;9.40;74.80;;;;;;5014617;28;20020;-59
2021/12/26 11:10:12;;;;;;;;;;;9.40;75.20;;;;;;5014448;28;19920;-60
2021/12/26 11:12:39;;;;;;;;;;;9.40;75.00;;;;;;5013627;28;19940;-57
2021/12/26 11:15:05;;;;;;;;;;;9.50;74.70;;;;;;4995888;28;19914;-58
2021/12/26 11:17:32;;;;;;;;;;;9.60;74.30;;;;;;5013173;28;20087;-60
2021/12/26 11:19:58;;;;;;;;;;;9.60;74.10;;;;;;5013843;28;19921;-62
2021/12/26 11:22:24;;;;;;;;;;;9.60;73.30;;;;;;5014260;28;19914;-63
2021/12/26 11:24:50;;;;;;;;;;;9.60;73.50;;;;;;5013554;28;20036;-62
2021/12/26 11:27:15;;;;;;;;;;;9.70;73.00;;;;;;5014493;28;19953;-69
2021/12/26 11:29:41;;;;;;;;;;;9.50;73.20;;;;;;5013849;28;20003;-64
2021/12/26 11:32:07;;;;;;;;;;;9.60;73.00;;;;;;5014081;28;19916;-66
2021/12/26 11:34:33;;;;;;;;;;;9.70;72.80;;;;;;5013814;28;19929;-63
2021/12/26 11:36:59;;;;;;;;;;;9.70;72.80;;;;;;5014049;28;19914;-62
2021/12/26 11:39:25;;;;;;;;;;;9.70;72.80;;;;;;5013641;28;19914;-63
2021/12/26 11:41:58;;;;;;;;;;;9.70;72.80;;;;;;5013636;28;19975;-64
2021/12/26 11:44:23;;;;;;;;;;;9.70;72.80;;;;;;4996072;28;20740;-63
2021/12/26 11:47:06;;;;;;;;;;;9.60;73.30;;;;;;5013339;28;19920;-63
2021/12/26 11:50:00;;;;;;;;;;;9.70;72.50;;;;;;5013150;28;19996;-65
2021/12/26 11:52:48;;;;;;;;;;;9.60;73.00;;;;;;5013676;28;19914;-67
2021/12/26 11:55:34;;;;;;;;;;;9.60;72.70;;;;;;5013425;28;19921;-65
2021/12/26 11:58:00;;;;;;;;;;;9.60;73.40;;;;;;5013323;28;19913;-64
2021/12/26 12:00:27;;;;;;;;;;;9.60;72.50;;;;;;5013243;28;19917;-75
2021/12/26 12:02:54;;;;;;;;;;;9.60;72.80;;;;;;5013241;28;19935;-68
2021/12/26 12:05:22;;;;;;;;;;;9.60;72.50;;;;;;5013213;28;19909;-65
2021/12/26 12:07:51;;;;;;;;;;;9.60;72.70;;;;;;5012847;28;20400;-63
2021/12/26 12:10:46;;;;;;;;;;;9.60;72.10;;;;;;5012995;28;19910;-64
2021/12/26 12:13:12;;;;;;;;;;;9.60;72.60;;;;;;4992441;28;19917;-63
2021/12/26 12:15:46;;;;;;;;;;;9.50;72.20;;;;;;5012765;28;19913;-63
2021/12/26 12:18:16;;;;;;;;;;;9.60;71.90;;;;;;5013142;28;19910;-63
2021/12/26 12:20:42;;;;;;;;;;;9.70;71.00;;;;;;5012673;28;19960;-66
2021/12/26 12:23:08;;;;;;;;;;;9.80;71.30;;;;;;4994863;28;19963;-69
2021/12/26 12:25:34;;;;;;;;;;;9.80;71.40;;;;;;5012861;28;19921;-62
2021/12/26 12:28:05;;;;;;;;;;;9.80;71.40;;;;;;5012978;28;19914;-63
2021/12/26 12:30:31;;;;;;;;;;;9.90;71.10;;;;;;5012943;28;20024;-65
2021/12/26 12:33:12;;;;;;;;;;;9.70;71.50;;;;;;5012640;28;19917;-64
2021/12/26 12:36:03;;;;;;;;;;;9.70;71.40;;;;;;5012500;28;19913;-61
2021/12/26 12:38:29;;;;;;;;;;;9.70;72.10;;;;;;4990470;28;20369;-60
2021/12/26 12:40:55;;;;;;;;;;;9.70;72.10;;;;;;5011973;28;20012;-60
2021/12/26 12:43:23;;;;;;;;;;;9.70;71.90;;;;;;5012098;28;19916;-64
2021/12/26 12:48:21;;;;;;;;;;;9.70;72.20;;;;;;5012006;28;19971;-61
2021/12/26 12:50:46;;;;;;;;;;;9.70;71.40;;;;;;5011871;28;20342;-62
2021/12/26 12:53:31;;;;;;;;;;;9.70;71.80;;;;;;5014759;28;19957;-62
2021/12/26 12:55:56;;;;;;;;;;;9.70;71.60;;;;;;5009176;28;20377;-62
2021/12/26 12:58:25;;;;;;;;;;;9.70;71.20;;;;;;5012879;28;19909;-63
2021/12/26 13:00:51;;;;;;;;;;;9.60;71.40;;;;;;5012231;28;19967;-62
2021/12/26 13:03:17;;;;;;;;;;;9.70;71.70;;;;;;5012602;28;19933;-59
2021/12/26 13:05:44;;;;;;;;;;;9.70;71.40;;;;;;5012360;28;19936;-61
2021/12/26 13:08:12;;;;;;;;;;;9.70;71.30;;;;;;5012670;28;19909;-60
2021/12/26 13:10:38;;;;;;;;;;;9.70;70.80;;;;;;5012339;28;19932;-60
2021/12/26 13:13:11;;;;;;;;;;;9.70;71.10;;;;;;5012454;28;20025;-60
2021/12/26 13:15:48;;;;;;;;;;;9.70;70.60;;;;;;5012678;28;19909;-60
2021/12/26 13:18:14;;;;;;;;;;;9.70;70.80;;;;;;5012906;28;20369;-59
2021/12/26 13:20:40;;;;;;;;;;;9.70;70.80;;;;;;5012742;28;19924;-59
2021/12/26 13:23:06;;;;;;;;;;;9.70;71.30;;;;;;5012935;28;19914;-60
2021/12/26 13:25:42;;;;;;;;;;;9.70;70.70;;;;;;5012806;28;19933;-61
2021/12/26 13:28:07;;;;;;;;;;;9.70;70.50;;;;;;5012800;28;19910;-59
2021/12/26 13:30:33;;;;;;;;;;;9.80;70.60;;;;;;5012760;28;19919;-60
2021/12/26 13:32:59;;;;;;;;;;;9.70;70.40;;;;;;5013196;28;20000;-59
2021/12/26 13:35:29;;;;;;;;;;;9.70;71.20;;;;;;5014112;28;19941;-60
2021/12/26 13:37:57;;;;;;;;;;;9.70;70.80;;;;;;5016490;28;19963;-60
2021/12/26 13:40:23;;;;;;;;;;;9.70;70.20;;;;;;5016410;28;19921;-58
2021/12/26 13:42:52;;;;;;;;;;;9.70;70.30;;;;;;5016487;28;19909;-60
2021/12/26 13:45:27;;;;;;;;;;;9.70;70.70;;;;;;5016364;28;19975;-58
2021/12/26 13:47:53;;;;;;;;;;;9.70;70.40;;;;;;5016001;28;20392;-59
2021/12/26 13:50:18;;;;;;;;;;;9.80;70.30;;;;;;5016184;28;20004;-60
2021/12/26 13:52:44;;;;;;;;;;;9.70;70.30;;;;;;5016206;28;20000;-60
2021/12/26 13:55:09;;;;;;;;;;;9.70;70.20;;;;;;5016119;28;19910;-60
2021/12/26 13:57:35;;;;;;;;;;;9.70;70.30;;;;;;5016296;28;19917;-59
2021/12/26 14:00:03;;;;;;;;;;;9.70;70.30;;;;;;5016071;28;20338;-60
2021/12/26 14:02:30;;;;;;;;;;;9.70;69.70;;;;;;5016076;28;19909;-60
2021/12/26 14:04:57;;;;;;;;;;;9.60;70.40;;;;;;5015798;28;19909;-60
2021/12/26 14:07:23;;;;;;;;;;;9.60;70.20;;;;;;5016248;28;19968;-60
2021/12/26 14:09:50;;;;;;;;;;;9.60;70.20;;;;;;5015973;28;19914;-61
2021/12/26 14:12:26;;;;;;;;;;;9.70;70.20;;;;;;5015633;28;20384;-58
2021/12/26 14:14:52;;;;;;;;;;;9.60;69.70;;;;;;5016046;28;20385;-59
2021/12/26 14:17:18;;;;;;;;;;;9.60;70.00;;;;;;5015709;28;19964;-59
2021/12/26 14:19:53;;;;;;;;;;;9.60;70.10;;;;;;5015841;28;20003;-59
2021/12/26 14:22:28;;;;;;;;;;;9.60;70.30;;;;;;5015570;28;19917;-58
2021/12/26 14:24:54;;;;;;;;;;;9.60;70.30;;;;;;5015616;28;20016;-59
2021/12/26 14:27:20;;;;;;;;;;;9.50;70.30;;;;;;5015465;28;20386;-60